Time;durP1;ratioP1;P1;durP2;ratioP2;P2;SDS_P1;SDS_P2;PMS_P1;PMS_P2;Temp;Humidity;BMP_temperature;BMP_pressure;BME280_temperature;BME280_humidity;BME280_pressure;Samples;Min_cycle;Max_cycle;Signal;HPM_P1;HPM_P2
2022/12/15 00:39:57;;;;;;;9.40;4.13;;;;;;;-2.90;68.30;100347.72;4772670;30;20047;-80
2022/12/15 00:42:25;;;;;;;7.88;4.30;;;;;;;-2.90;68.40;100345.16;4743142;30;20074;-80
2022/12/15 00:44:51;;;;;;;10.50;4.50;;;;;;;-3.02;68.17;100314.81;4758118;30;20057;-82
2022/12/15 00:47:17;;;;;;;8.32;4.38;;;;;;;-3.11;68.10;100311.78;4772692;30;20099;-81
2022/12/15 01:20:19;;;;;;;9.35;4.90;;;;;;;-2.92;68.23;100323.81;4769898;30;20122;-79
2022/12/15 01:22:51;;;;;;;10.38;4.75;;;;;;;-2.95;67.81;100331.31;4753985;30;20055;-82
2022/12/15 01:25:20;;;;;;;10.63;4.53;;;;;;;-2.76;68.40;100351.00;4754239;30;20502;-80
2022/12/15 01:27:47;;;;;;;9.80;5.20;;;;;;;-2.91;68.08;100331.56;4753914;30;20113;-81
2022/12/15 01:30:16;;;;;;;7.65;4.45;;;;;;;-2.76;68.18;100354.41;4754030;30;20048;-81
2022/12/15 01:32:42;;;;;;;8.98;5.10;;;;;;;-2.74;68.28;100355.38;4753990;30;20055;-81
2022/12/15 01:35:10;;;;;;;10.15;4.97;;;;;;;-2.70;68.48;100358.09;4769963;30;20105;-81
2022/12/15 01:37:37;;;;;;;11.18;5.28;;;;;;;-2.97;68.48;100318.50;4738634;30;20055;-79
2022/12/15 01:42:51;;;;;;;9.05;4.90;;;;;;;-2.78;68.03;100371.31;4753387;30;20051;-82
2022/12/15 01:45:22;;;;;;;12.43;6.03;;;;;;;-2.78;68.57;100372.97;4769326;30;20058;-81
2022/12/15 01:47:54;;;;;;;9.75;5.03;;;;;;;-2.94;68.53;100353.44;4753609;30;20426;-78
2022/12/15 01:50:21;;;;;;;10.10;5.18;;;;;;;-2.84;68.22;100372.63;4753571;30;20817;-81
2022/12/15 01:52:49;;;;;;;8.63;4.57;;;;;;;-2.71;68.54;100382.72;4753597;30;20130;-80
2022/12/15 01:55:18;;;;;;;8.50;4.63;;;;;;;-2.70;68.28;100398.88;4753827;30;20506;-82
2022/12/15 01:57:45;;;;;;;7.93;4.63;;;;;;;-2.76;68.12;100385.00;4753729;30;20055;-83
2022/12/15 02:00:12;;;;;;;10.23;4.72;;;;;;;-2.83;68.33;100380.38;4739530;30;20095;-81
2022/12/15 02:02:39;;;;;;;11.75;5.38;;;;;;;-2.65;68.91;100392.34;4775436;30;20142;-81
2022/12/15 02:05:07;;;;;;;8.02;4.43;;;;;;;-2.70;68.14;100368.28;4764011;30;20056;-81
2022/12/15 02:07:33;;;;;;;9.90;5.05;;;;;;;-2.49;68.58;100392.38;4764575;30;20056;-81
2022/12/15 02:10:01;;;;;;;10.43;5.10;;;;;;;-2.48;68.58;100395.81;4752165;30;20102;-79
2022/12/15 02:12:39;;;;;;;8.43;4.60;;;;;;;-2.53;68.46;100403.19;4758752;30;20087;-81
2022/12/15 02:15:27;;;;;;;7.45;4.80;;;;;;;-2.55;68.58;100396.28;4769820;30;20054;-84
2022/12/15 02:18:04;;;;;;;10.35;5.13;;;;;;;-2.64;67.83;100400.06;4753505;30;20040;-84
2022/12/15 02:20:36;;;;;;;8.68;5.05;;;;;;;-2.73;68.18;100404.69;4770016;30;20113;-81
2022/12/15 02:23:33;;;;;;;9.05;4.85;;;;;;;-2.84;68.12;100406.66;4771626;30;20055;-84
2022/12/15 02:26:05;;;;;;;8.13;4.47;;;;;;;-2.93;68.15;100406.13;4769317;30;20078;-82
2022/12/15 02:28:44;;;;;;;9.65;5.10;;;;;;;-3.04;68.39;100416.63;4753085;30;20040;-84
2022/12/15 02:34:12;;;;;;;11.13;5.30;;;;;;;-3.29;68.21;100414.34;4754547;30;20138;-82
2022/12/15 02:36:43;;;;;;;10.55;5.07;;;;;;;-3.53;67.48;100396.88;4753278;30;20044;-81
2022/12/15 02:39:13;;;;;;;8.90;5.20;;;;;;;-3.69;68.83;100390.03;4768725;30;20047;-81
2022/12/15 02:41:43;;;;;;;10.00;5.25;;;;;;;-3.80;68.20;100381.78;4753390;30;20365;-83
2022/12/15 02:44:16;;;;;;;10.70;6.22;;;;;;;-3.71;68.09;100417.06;4738471;30;20105;-83
2022/12/15 02:46:52;;;;;;;11.70;6.13;;;;;;;-3.79;68.61;100418.25;4753461;30;20460;-80
2022/12/15 02:49:45;;;;;;;13.75;5.95;;;;;;;-3.86;68.72;100422.13;4769160;30;20134;-80
2022/12/15 02:52:11;;;;;;;14.15;6.90;;;;;;;-3.86;68.74;100413.63;4753761;30;20049;-82
2022/12/15 02:54:52;;;;;;;12.35;6.00;;;;;;;-3.99;68.50;100402.72;4770864;30;20134;-80
2022/12/15 02:57:52;;;;;;;9.32;5.05;;;;;;;-4.11;68.53;100402.00;4752384;30;20055;-81
2022/12/15 03:00:18;;;;;;;9.27;5.60;;;;;;;-4.14;68.45;100420.47;4752490;30;20047;-82
2022/12/15 03:02:49;;;;;;;9.48;4.60;;;;;;;-4.22;68.58;100418.25;4774033;29;20132;-84
2022/12/15 03:05:17;;;;;;;13.05;5.45;;;;;;;-4.48;68.37;100408.25;4771148;30;20209;-82
2022/12/15 03:07:43;;;;;;;11.93;5.43;;;;;;;-4.38;68.75;100428.34;4787022;29;20108;-82
2022/12/15 03:10:12;;;;;;;10.43;5.40;;;;;;;-4.45;68.71;100417.72;4787016;29;20097;-82
2022/12/15 03:12:39;;;;;;;11.07;5.60;;;;;;;-4.26;68.75;100429.91;4770533;30;20083;-82
2022/12/15 03:15:06;;;;;;;10.43;5.40;;;;;;;-4.47;68.92;100396.41;4785678;29;20070;-83
2022/12/15 03:17:32;;;;;;;9.55;5.25;;;;;;;-4.48;68.38;100403.19;4785925;29;20069;-81
2022/12/15 03:19:58;;;;;;;9.98;5.28;;;;;;;-4.39;68.91;100423.19;4788639;29;20093;-81
2022/12/15 03:22:24;;;;;;;18.75;6.28;;;;;;;-4.53;68.82;100409.63;4791019;29;20043;-82
2022/12/15 03:24:50;;;;;;;9.23;5.15;;;;;;;-4.52;69.21;100420.69;4798952;29;20055;-83
2022/12/15 03:27:16;;;;;;;10.15;5.43;;;;;;;-4.36;69.23;100433.56;4795487;29;20046;-81
2022/12/15 03:29:42;;;;;;;10.98;5.10;;;;;;;-4.40;68.52;100431.59;4788995;29;20471;-82
2022/12/15 03:32:08;;;;;;;10.50;5.00;;;;;;;-4.28;68.95;100454.34;4788545;29;20517;-81
2022/12/15 03:34:35;;;;;;;9.77;4.97;;;;;;;-4.51;69.13;100405.53;4793032;29;20070;-82
2022/12/15 03:37:01;;;;;;;11.43;5.13;;;;;;;-4.50;69.04;100409.84;4788964;29;20047;-79
2022/12/15 03:39:27;;;;;;;11.20;5.15;;;;;;;-4.30;68.89;100449.16;4790029;29;20059;-82
2022/12/15 03:41:53;;;;;;;11.05;5.18;;;;;;;-4.33;68.74;100449.00;4788880;29;20054;-81
2022/12/15 03:44:19;;;;;;;11.23;5.20;;;;;;;-4.56;69.04;100417.06;4789280;29;20561;-84
2022/12/15 03:46:46;;;;;;;10.80;5.13;;;;;;;-4.57;68.62;100425.47;4791105;29;20691;-81
2022/12/15 03:49:12;;;;;;;12.10;5.57;;;;;;;-4.45;69.12;100448.22;4774330;30;20043;-82
2022/12/15 03:51:38;;;;;;;10.25;5.50;;;;;;;-4.58;68.89;100444.03;4790664;29;20060;-83
2022/12/15 03:54:06;;;;;;;20.95;8.77;;;;;;;-4.46;69.21;100461.69;4792422;29;20054;-82
2022/12/15 03:56:33;;;;;;;14.25;5.78;;;;;;;-4.89;69.25;100398.97;4795480;29;20490;-83
2022/12/15 03:59:02;;;;;;;9.98;5.45;;;;;;;-4.58;68.99;100457.63;4780563;30;20054;-82
2022/12/15 04:01:48;;;;;;;11.15;5.72;;;;;;;-4.42;68.77;100479.81;4777184;30;20127;-82
2022/12/15 04:04:14;;;;;;;13.43;5.40;;;;;;;-4.73;69.28;100410.94;4758409;30;20083;-80
2022/12/15 04:06:46;;;;;;;26.48;11.20;;;;;;;-4.23;69.33;100470.75;4759795;30;20585;-83
2022/12/15 04:09:12;;;;;;;;;;;;;;;-4.18;68.73;100482.06;4746294;30;20494;-81
2022/12/15 04:11:38;;;;;;;8.57;4.53;;;;;;;-4.14;68.73;100470.44;4756897;30;19929;-80
2022/12/15 04:14:04;;;;;;;10.90;5.38;;;;;;;-4.02;68.76;100486.44;4757816;30;20047;-80
2022/12/15 04:16:30;;;;;;;9.90;5.15;;;;;;;-4.22;68.61;100439.47;4743260;30;20057;-82
2022/12/15 04:21:41;;;;;;;10.88;5.00;;;;;;;-3.86;69.09;100456.88;4778007;30;20124;-80
2022/12/15 05:32:50;;;;;;;14.75;5.97;;;;;;;-4.71;68.74;100521.13;4789333;29;20051;-79
2022/12/15 05:35:16;;;;;;;12.13;6.15;;;;;;;-4.71;68.43;100526.19;4786816;29;20513;-81
2022/12/15 05:37:42;;;;;;;13.73;6.18;;;;;;;-4.76;68.61;100535.22;4788308;29;20043;-82
2022/12/15 05:40:08;;;;;;;12.75;5.65;;;;;;;-5.02;68.27;100509.00;4787088;29;20043;-82
2022/12/15 05:42:34;;;;;;;12.15;5.65;;;;;;;-5.07;68.25;100511.22;4773135;29;20111;-80
2022/12/15 05:45:00;;;;;;;13.25;6.45;;;;;;;-5.18;68.71;100514.72;4772762;29;20208;-80
2022/12/15 05:47:28;;;;;;;15.48;6.53;;;;;;;-5.32;68.13;100498.59;4774059;30;20046;-82
2022/12/15 05:49:54;;;;;;;12.68;5.57;;;;;;;-5.24;68.84;100522.81;4787269;29;20130;-81
2022/12/15 05:52:20;;;;;;;12.35;5.85;;;;;;;-5.08;69.12;100547.56;4774263;30;20051;-79
2022/12/15 05:54:46;;;;;;;12.40;5.75;;;;;;;-5.07;69.34;100535.75;4784622;30;20112;-83
2022/12/15 05:57:13;;;;;;;13.35;5.53;;;;;;;-5.27;69.09;100501.41;4787325;29;20089;-81
2022/12/15 05:59:49;;;;;;;13.02;5.47;;;;;;;-4.97;69.42;100563.50;4787154;29;20452;-80
2022/12/15 06:02:19;;;;;;;25.52;6.40;;;;;;;-5.08;69.04;100547.56;4787048;29;20073;-79
2022/12/15 06:04:45;;;;;;;13.63;6.13;;;;;;;-5.33;68.34;100502.81;4787638;29;20070;-81
2022/12/15 06:07:11;;;;;;;13.57;6.28;;;;;;;-5.16;68.77;100546.16;4788151;29;20565;-82
2022/12/15 06:09:58;;;;;;;18.27;7.65;;;;;;;-5.54;69.00;100463.31;4787060;29;20394;-82
2022/12/15 06:12:29;;;;;;;15.07;7.05;;;;;;;-5.83;68.25;100417.47;4772912;29;20547;-79
2022/12/15 06:15:01;;;;;;;15.32;6.57;;;;;;;-6.27;68.69;100317.47;4772561;29;20059;-83
2022/12/15 06:17:40;;;;;;;18.00;6.88;;;;;;;-5.72;68.87;100391.97;4786902;29;20062;-84
2022/12/15 06:20:18;;;;;;;17.83;7.07;;;;;;;-5.39;68.64;100461.78;4772324;29;20043;-82
2022/12/15 06:23:00;;;;;;;15.98;6.80;;;;;;;-5.51;68.95;100446.63;4785444;29;20479;-83
2022/12/15 06:25:29;;;;;;;12.95;6.72;;;;;;;-4.50;69.05;100607.13;4786263;29;20054;-82
2022/12/15 06:27:56;;;;;;;15.18;6.40;;;;;;;-6.01;68.73;100371.53;4787195;29;20053;-81
2022/12/15 06:30:37;;;;;;;15.35;7.32;;;;;;;-5.36;68.81;100453.50;4770821;29;20073;-82
2022/12/15 06:33:09;;;;;;;16.48;6.82;;;;;;;-5.23;68.52;100466.22;4785619;29;20098;-82
2022/12/15 06:35:42;;;;;;;15.05;6.93;;;;;;;-5.71;68.58;100345.53;4771093;29;20051;-82
2022/12/15 06:38:13;;;;;;;15.25;6.75;;;;;;;-5.77;68.51;100349.44;4786017;29;20043;-81
2022/12/15 06:40:40;;;;;;;12.13;5.87;;;;;;;-4.36;68.33;100606.38;4787575;29;20046;-82
2022/12/15 06:43:15;;;;;;;15.88;7.05;;;;;;;-4.96;68.53;100514.47;4771167;29;20293;-80
2022/12/15 06:45:48;;;;;;;16.05;7.35;;;;;;;-4.76;68.81;100535.22;4785663;29;20043;-80
2022/12/15 06:48:14;;;;;;;14.73;6.40;;;;;;;-5.30;68.16;100433.59;4786098;29;20116;-81
2022/12/15 06:50:41;;;;;;;18.92;6.82;;;;;;;-5.47;69.09;100422.34;4771597;30;20035;-84
2022/12/15 06:53:07;;;;;;;14.05;6.70;;;;;;;-5.12;68.76;100450.78;4789899;29;20406;-80
2022/12/15 06:55:33;;;;;;;12.50;6.50;;;;;;;-5.94;68.47;100306.88;4774568;29;20047;-80
2022/12/15 06:58:02;;;;;;;11.93;5.57;;;;;;;-4.80;68.53;100503.63;4790448;29;20105;-83
2022/12/15 07:00:33;;;;;;;12.50;6.28;;;;;;;-5.00;68.29;100488.00;4788923;29;20046;-81
2022/12/15 07:06:41;;;;;;;12.00;5.80;;;;;;;-4.70;68.71;100521.25;4798238;30;20127;-80
2022/12/15 07:09:16;;;;;;;14.00;6.13;;;;;;;-5.17;68.00;100448.81;4802583;29;20047;-82
2022/12/15 07:11:51;;;;;;;11.43;6.32;;;;;;;-5.28;68.83;100426.97;4763118;29;20066;-80
2022/12/15 07:14:25;;;;;;;14.23;6.25;;;;;;;-4.10;68.64;100637.66;4774920;29;20043;-81
2022/12/15 07:16:54;;;;;;;12.15;5.47;;;;;;;-5.29;68.63;100397.28;4789665;29;20047;-85
2022/12/15 07:19:36;;;;;;;13.23;5.90;;;;;;;-5.65;68.94;100354.41;4790527;29;20117;-80
2022/12/15 07:23:21;;;;;;;13.38;5.63;;;;;;;-3.94;68.39;100632.75;4790763;29;20050;-83
2022/12/15 07:25:27;;;;;;;13.13;5.60;;;;;;;-4.67;68.49;100496.81;4789860;29;20055;-82
2022/12/15 07:27:57;;;;;;;14.75;6.50;;;;;;;-5.29;68.19;100387.16;4775534;29;20304;-80
2022/12/15 07:30:49;;;;;;;;;;;;;;;;;;;;;
2022/12/15 07:33:35;;;;;;;13.80;6.10;;;;;;;-4.77;68.50;100452.19;4792417;29;20055;-82
2022/12/15 07:36:07;;;;;;;12.98;6.22;;;;;;;-4.39;67.86;100527.38;4777203;30;20047;-82
2022/12/15 07:38:33;;;;;;;12.77;5.82;;;;;;;-3.75;68.47;100638.97;4794023;29;20035;-82
2022/12/15 07:41:23;;;;;;;12.40;6.10;;;;;;;-4.96;68.22;100417.97;4794542;29;20059;-83
2022/12/15 07:43:49;;;;;;;13.48;6.35;;;;;;;-4.85;68.70;100394.16;4778926;30;20047;-83
2022/12/15 07:46:16;;;;;;;9.60;5.90;;;;;;;-3.45;68.03;100613.66;4800662;29;20098;-80
2022/12/15 07:48:42;;;;;;;12.13;5.88;;;;;;;-3.33;67.91;100606.75;4798828;29;20096;-83
2022/12/15 07:51:09;;;;;;;10.70;5.78;;;;;;;-3.26;67.86;100590.19;4798307;29;20612;-80
2022/12/15 07:53:36;;;;;;;10.90;5.10;;;;;;;-3.94;67.64;100508.13;4775293;29;20039;-81
2022/12/15 07:56:06;;;;;;;11.63;5.95;;;;;;;-3.30;67.03;100623.88;4790621;30;20047;-80
2022/12/15 07:58:45;;;;;;;14.25;5.95;;;;;;;-3.49;67.78;100599.84;4805808;29;20054;-83
2022/12/15 08:01:17;;;;;;;11.00;5.35;;;;;;;-3.13;68.11;100650.34;4765689;30;20133;-83
2022/12/15 08:04:38;;;;;;;15.25;6.32;;;;;;;-3.60;67.44;100541.47;4759820;30;20056;-82
2022/12/15 08:07:08;;;;;;;11.45;4.70;;;;;;;-4.47;68.00;100382.06;4704031;30;20176;-84
2022/12/15 08:18:22;;;;;;;10.73;4.82;;;;;;;-1.86;66.99;100572.50;4676650;30;20049;-82
2022/12/15 08:21:45;;;;;;;10.02;5.35;;;;;;;-2.06;67.06;100373.34;4725753;30;20112;-84
2022/12/15 08:34:43;;;;;;;7.28;4.63;;;;;;;3.22;63.43;100596.19;4589650;31;20052;-84
2022/12/15 08:43:02;;;;;;;10.57;5.03;;;;;;;-0.29;62.08;100531.72;4565076;31;20548;-81
2022/12/15 08:45:31;;;;;;;9.07;4.65;;;;;;;-1.01;62.62;100456.81;4614644;31;20071;-82
2022/12/15 08:48:04;;;;;;;11.50;5.90;;;;;;;-1.56;62.59;100374.13;4621994;31;20087;-82
2022/12/15 08:51:10;;;;;;;12.75;5.47;;;;;;;-1.56;62.15;100416.69;4680491;30;20532;-82
2022/12/15 08:53:37;;;;;;;10.23;5.15;;;;;;;-0.57;62.24;100632.72;4681955;30;20105;-83
2022/12/15 08:56:18;;;;;;;11.32;5.82;;;;;;;-2.14;62.67;100398.47;4725855;30;20059;-83
2022/12/15 08:59:00;;;;;;;14.30;5.50;;;;;;;-2.52;62.25;100348.00;4740561;30;20043;-83
2022/12/15 09:01:32;;;;;;;9.80;5.70;;;;;;;-1.84;61.94;100459.50;4754808;30;20498;-84
2022/12/15 09:04:07;;;;;;;8.88;4.90;;;;;;;-2.60;61.63;100345.06;4740833;30;20058;-83
2022/12/15 09:06:42;;;;;;;10.95;5.65;;;;;;;-1.80;62.31;100464.78;4754434;30;20087;-82
2022/12/15 09:09:12;;;;;;;12.23;5.65;;;;;;;-1.61;62.45;100528.72;4754289;30;20429;-83
2022/12/15 09:11:39;;;;;;;10.45;5.88;;;;;;;-2.83;61.79;100367.66;4725287;30;20426;-80
2022/12/15 09:14:07;;;;;;;11.80;5.45;;;;;;;-1.85;62.22;100513.03;4753581;30;20062;-82
2022/12/15 09:16:36;;;;;;;12.52;6.07;;;;;;;-2.73;62.06;100374.97;4739122;30;20047;-84
2022/12/15 09:19:05;;;;;;;10.98;5.28;;;;;;;-2.34;62.69;100365.97;4756365;30;20066;-82
2022/12/15 09:21:34;;;;;;;10.85;5.22;;;;;;;-2.16;61.07;100338.84;4774525;30;20078;-82
2022/12/15 09:24:02;;;;;;;11.43;5.82;;;;;;;-2.51;61.70;100292.00;4754456;30;20048;-82
2022/12/15 09:26:33;;;;;;;12.15;5.57;;;;;;;-1.67;61.30;100488.47;4739512;30;20066;-82
2022/12/15 09:29:00;;;;;;;12.07;6.15;;;;;;;-0.98;61.74;100640.06;4769762;30;20101;-82
2022/12/15 09:31:32;;;;;;;11.93;5.43;;;;;;;-2.06;61.47;100426.03;4770241;30;20063;-82
2022/12/15 09:33:59;;;;;;;10.32;6.00;;;;;;;-1.33;61.72;100519.94;4741847;30;20055;-81
2022/12/15 09:36:32;;;;;;;11.30;5.78;;;;;;;-1.89;60.93;100430.34;4754069;30;20597;-82
2022/12/15 09:39:01;;;;;;;13.18;6.05;;;;;;;-2.71;61.25;100262.97;4757395;30;20043;-83
2022/12/15 09:45:15;;;;;;;10.93;6.07;;;;;;;-1.46;61.08;100467.38;4744072;30;20099;-82
2022/12/15 09:50:53;;;;;;;12.95;6.00;;;;;;;-2.62;60.83;100239.63;4746207;30;20054;-81
2022/12/15 09:53:25;;;;;;;9.70;5.57;;;;;;;-1.73;59.71;100441.34;4741725;30;20102;-81
2022/12/15 09:56:05;;;;;;;10.98;5.72;;;;;;;-2.56;60.51;100339.34;4742415;30;20047;-83
2022/12/15 09:58:39;;;;;;;12.00;6.47;;;;;;;-1.17;61.30;100559.91;4741577;30;20040;-82
2022/12/15 10:05:04;;;;;;;12.95;6.15;;;;;;;-1.83;60.64;100384.72;4772447;30;20514;-82
2022/12/15 10:07:49;;;;;;;13.15;6.10;;;;;;;-1.85;59.71;100376.09;4788970;29;20107;-80
2022/12/15 10:10:31;;;;;;;11.77;6.18;;;;;;;-2.14;60.40;100357.66;4773819;29;20039;-81
2022/12/15 10:14:07;;;;;;;;;;;;;;;;;;;;;
2022/12/15 10:22:29;;;;;;;18.75;6.97;;;;;;;-1.85;60.93;100551.31;4669527;30;20305;-83
2022/12/15 10:25:30;;;;;;;15.02;6.57;;;;;;;-3.67;60.79;100233.28;4685277;30;20076;-81
2022/12/15 10:29:20;;;;;;;13.30;6.32;;;;;;;-2.73;60.91;100377.53;4716267;29;20051;-80
2022/12/15 10:36:28;;;;;;;19.02;6.75;;;;;;;-2.62;61.32;100480.03;4722524;30;20047;-82
2022/12/15 10:39:18;;;;;;;12.48;6.25;;;;;;;-3.16;60.50;100431.19;4685908;30;20045;-82
2022/12/15 10:42:20;;;;;;;15.80;7.00;;;;;;;-2.99;61.60;100517.88;4786901;29;20162;-84
2022/12/15 10:45:05;;;;;;;16.88;7.57;;;;;;;-3.51;61.81;100384.25;4769240;29;20047;-84
2022/12/15 10:48:05;;;;;;;16.38;6.78;;;;;;;-4.38;61.16;100267.41;4769595;29;20058;-82
2022/12/15 10:50:35;;;;;;;14.40;6.90;;;;;;;-2.84;61.90;100533.13;4788419;29;20047;-80
2022/12/15 10:54:08;;;;;;;12.70;6.82;;;;;;;-2.83;62.43;100540.88;4795185;29;20215;-81
2022/12/15 10:57:22;;;;;;;15.52;7.65;;;;;;;-4.15;62.69;100276.34;4689349;30;20444;-81
2022/12/15 11:00:15;;;;;;;14.90;6.30;;;;;;;-2.96;63.08;100467.09;4720009;30;20123;-83
2022/12/15 11:02:55;;;;;;;14.57;6.45;;;;;;;-4.40;62.31;100285.06;4772381;29;20197;-88
2022/12/15 11:05:27;;;;;;;14.25;6.53;;;;;;;-4.02;62.06;100376.22;4779092;29;20047;-83
2022/12/15 11:08:18;;;;;;;12.73;6.00;;;;;;;-4.54;62.35;100311.34;4789812;29;20058;-82
2022/12/15 11:14:31;;;;;;;12.90;6.15;;;;;;;-3.37;62.13;100579.34;4788482;29;20077;-84
2022/12/15 11:17:05;;;;;;;15.80;6.63;;;;;;;-4.50;62.42;100404.75;4773623;29;20078;-84
2022/12/15 11:19:52;;;;;;;16.17;6.75;;;;;;;-3.45;63.30;100578.03;4773557;30;20043;-83
2022/12/15 11:22:37;;;;;;;15.38;6.55;;;;;;;-3.55;62.65;100581.69;4757840;30;20047;-81
2022/12/15 11:25:33;;;;;;;13.88;6.28;;;;;;;-3.70;63.16;100553.66;4772830;30;20063;-84
2022/12/15 11:28:21;;;;;;;13.55;6.80;;;;;;;-4.29;63.20;100461.06;4758481;29;20039;-85
2022/12/15 11:31:04;;;;;;;19.52;8.68;;;;;;;-3.54;63.38;100560.56;4773810;29;20039;-84
2022/12/15 11:33:30;;;;;;;27.00;12.10;;;;;;;-3.41;63.53;100572.31;4779839;29;20142;-83
2022/12/15 11:36:06;;;;;;;14.75;6.80;;;;;;;-3.40;62.90;100575.75;4791583;29;20051;-79
2022/12/15 11:38:57;;;;;;;17.98;8.45;;;;;;;-3.61;62.75;100575.34;4757586;30;20130;-79
2022/12/15 11:41:49;;;;;;;15.23;7.50;;;;;;;-3.69;63.28;100572.31;4787740;29;20043;-83
2022/12/15 11:44:23;;;;;;;16.05;6.35;;;;;;;-3.73;63.38;100566.19;4773486;29;20067;-81
2022/12/15 11:47:08;;;;;;;15.40;6.45;;;;;;;-3.80;63.51;100569.13;4775743;29;20051;-84
2022/12/15 11:50:47;;;;;;;13.73;6.35;;;;;;;-3.80;64.08;100564.03;4794259;29;20062;-82
2022/12/15 11:54:14;;;;;;;13.57;6.05;;;;;;;-3.76;63.44;100553.28;4793330;29;20050;-82
2022/12/15 11:57:01;;;;;;;16.63;6.95;;;;;;;-5.29;63.82;100311.00;4791972;29;20089;-82
2022/12/15 12:00:17;;;;;;;12.98;6.45;;;;;;;-4.82;62.84;100421.41;4787287;29;20059;-84
2022/12/15 12:04:02;;;;;;;;;;;;;;;;;;;;;
2022/12/15 12:26:08;;;;;;;14.45;6.20;;;;;;;-6.21;64.20;100259.59;4634655;30;20130;-86
2022/12/15 12:29:22;;;;;;;14.35;6.90;;;;;;;-4.98;64.90;100465.28;4621604;30;20158;-82
2022/12/15 12:32:26;;;;;;;14.93;7.00;;;;;;;-4.46;64.81;100523.59;4622547;30;20150;-83
2022/12/15 12:35:10;;;;;;;14.52;7.07;;;;;;;-4.52;64.54;100528.28;4649181;30;20057;-82
2022/12/15 12:37:51;;;;;;;17.10;7.50;;;;;;;-5.03;64.71;100439.56;4694441;30;20109;-81
2022/12/15 12:41:05;;;;;;;15.57;7.15;;;;;;;-4.43;65.47;100515.25;4756597;29;20087;-82
2022/12/15 12:43:46;;;;;;;14.73;6.55;;;;;;;-5.13;64.77;100434.69;4786478;29;20142;-86
2022/12/15 12:46:50;;;;;;;17.02;6.60;;;;;;;-5.84;64.83;100328.66;4775021;29;20055;-86
2022/12/15 12:49:33;;;;;;;12.98;6.45;;;;;;;-4.86;64.91;100504.13;4780453;29;20061;-82
2022/12/15 13:01:30;;;;;;;14.25;6.18;;;;;;;-5.01;65.73;100473.56;4727832;30;20052;-83
2022/12/15 13:05:17;;;;;;;18.13;6.07;;;;;;;-5.12;65.62;100455.88;4740002;30;20052;-84
2022/12/15 13:08:55;;;;;;;14.38;5.93;;;;;;;-6.81;66.36;100159.41;4703176;30;20441;-83
2022/12/15 13:11:46;;;;;;;14.23;6.38;;;;;;;-5.05;65.92;100463.09;4706012;29;20045;-83
2022/12/15 13:14:45;;;;;;;;;;;;;;;;;;;;;
2022/12/15 13:18:35;;;;;;;11.77;5.70;;;;;;;-6.64;66.08;100200.16;4806734;29;20027;-82
2022/12/15 13:22:30;;;;;;;13.57;6.60;;;;;;;-7.08;66.37;100135.69;4739885;30;20062;-82
2022/12/15 13:25:22;;;;;;;13.30;6.13;;;;;;;-7.09;65.69;100154.16;4727598;29;20047;-84
2022/12/15 13:32:52;;;;;;;;;;;;;;;;;;;;;
2022/12/15 13:36:44;;;;;;;;;;;;;;;;;;;;;
2022/12/15 13:40:46;;;;;;;;;;;;;;;;;;;;;
2022/12/15 13:43:35;;;;;;;19.17;7.23;;;;;;;-5.29;66.24;100413.38;4775237;30;20050;-83
2022/12/15 13:46:46;;;;;;;13.90;5.78;;;;;;;-5.30;66.47;100411.66;4775199;29;20050;-82
2022/12/15 13:49:33;;;;;;;17.92;6.57;;;;;;;-6.61;66.46;100197.84;4773073;29;20112;-82
2022/12/15 13:52:36;;;;;;;15.27;6.63;;;;;;;-7.41;65.36;100091.38;4790797;29;20051;-81
2022/12/15 13:55:17;;;;;;;19.00;8.45;;;;;;;-5.36;66.12;100403.63;4787955;29;20540;-82
2022/12/15 13:58:13;;;;;;;14.90;7.22;;;;;;;-5.47;66.17;100392.78;4788616;29;20060;-82
2022/12/15 14:00:49;;;;;;;14.70;6.47;;;;;;;-5.46;66.82;100388.59;4785605;29;20084;-81
2022/12/15 14:03:22;;;;;;;12.50;5.78;;;;;;;-5.48;66.26;100367.31;4788265;29;20066;-80
2022/12/15 14:05:54;;;;;;;14.50;5.57;;;;;;;-5.43;66.07;100373.56;4791615;29;20042;-81
2022/12/15 14:08:22;;;;;;;12.68;6.18;;;;;;;-5.40;66.28;100377.94;4801333;29;20047;-82
2022/12/15 14:10:57;;;;;;;13.00;5.97;;;;;;;-5.39;66.06;100383.13;4798734;29;20086;-82
2022/12/15 14:13:49;;;;;;;13.77;6.03;;;;;;;-5.36;66.47;100390.06;4790828;29;20057;-81
2022/12/15 14:16:20;;;;;;;12.82;5.53;;;;;;;-5.76;65.42;100366.41;4787691;29;20078;-83
2022/12/15 14:19:03;;;;;;;14.80;6.22;;;;;;;-5.57;66.14;100408.19;4790985;29;20410;-82
2022/12/15 14:21:30;;;;;;;15.73;6.32;;;;;;;-5.54;65.50;100390.63;4792405;29;20501;-78
2022/12/15 14:24:02;;;;;;;14.73;6.97;;;;;;;-5.80;66.03;100355.97;4780697;29;20043;-82
2022/12/15 14:26:30;;;;;;;17.38;6.93;;;;;;;-5.66;65.98;100383.09;4775266;30;20085;-83
2022/12/15 14:29:03;;;;;;;15.27;6.03;;;;;;;-6.00;65.90;100314.13;4788712;29;20103;-84
2022/12/15 14:31:29;;;;;;;16.15;6.63;;;;;;;-5.80;65.28;100374.56;4792800;29;20055;-82
2022/12/15 14:34:32;;;;;;;15.90;6.38;;;;;;;-5.72;66.66;100374.22;4790750;29;20043;-83
2022/12/15 14:37:07;;;;;;;13.35;5.65;;;;;;;-5.83;66.66;100321.13;4764182;30;20525;-83
2022/12/15 14:39:42;;;;;;;14.57;5.80;;;;;;;-6.22;65.94;100282.28;4777297;30;20049;-81
2022/12/15 14:42:16;;;;;;;14.43;5.70;;;;;;;-6.01;66.11;100330.09;4808747;30;20334;-84
2022/12/15 14:44:46;;;;;;;13.32;6.90;;;;;;;-6.21;65.48;100307.75;4808285;29;20028;-83
2022/12/15 14:47:34;;;;;;;15.68;6.60;;;;;;;-5.75;66.51;100383.38;4781667;29;20130;-83
2022/12/15 14:50:02;;;;;;;15.98;5.70;;;;;;;-5.95;66.01;100374.44;4794778;29;20043;-81
2022/12/15 14:52:40;;;;;;;15.32;6.32;;;;;;;-6.03;66.59;100372.19;4791416;29;20046;-82
2022/12/15 14:55:48;;;;;;;16.63;6.00;;;;;;;-5.80;66.26;100381.31;4790813;29;20093;-80
2022/12/15 14:58:33;;;;;;;12.75;6.05;;;;;;;-6.60;65.91;100303.41;4772313;29;20062;-82
2022/12/15 15:01:05;;;;;;;15.60;6.53;;;;;;;-6.68;66.75;100265.78;4777592;30;20147;-81
2022/12/15 15:03:41;;;;;;;18.20;6.32;;;;;;;-7.09;66.55;100209.81;4793013;29;20510;-82
2022/12/15 15:06:29;;;;;;;14.90;5.85;;;;;;;-5.88;66.47;100387.53;4793277;29;20092;-84
2022/12/15 15:09:24;;;;;;;14.98;6.35;;;;;;;-6.31;66.08;100330.69;4789830;29;20517;-81
2022/12/15 15:12:05;;;;;;;11.48;5.60;;;;;;;-6.07;65.59;100392.25;4782910;29;20078;-82
2022/12/15 15:14:39;;;;;;;14.93;5.53;;;;;;;-6.07;66.67;100396.47;4794348;29;20051;-83
2022/12/15 15:17:20;;;;;;;15.57;5.75;;;;;;;-5.96;66.25;100389.56;4778914;30;20047;-83
2022/12/15 15:19:51;;;;;;;11.60;4.95;;;;;;;-6.11;66.43;100359.91;4799333;29;20054;-83
2022/12/15 15:22:39;;;;;;;14.73;6.30;;;;;;;-6.00;65.89;100398.66;4800941;29;20067;-85
2022/12/15 15:25:26;;;;;;;13.75;6.10;;;;;;;-6.18;66.08;100367.88;4780999;29;20138;-79
2022/12/15 15:28:11;;;;;;;16.38;6.03;;;;;;;-6.22;66.86;100349.06;4785127;29;20047;-82
2022/12/15 15:31:07;;;;;;;16.13;7.13;;;;;;;-6.53;65.92;100278.59;4778665;29;20053;-84
2022/12/15 15:33:37;;;;;;;16.10;6.97;;;;;;;-6.03;66.17;100352.81;4789629;29;20050;-82
2022/12/15 15:36:10;;;;;;;20.60;7.03;;;;;;;-6.05;66.59;100354.38;4789925;29;20489;-82
2022/12/15 15:38:39;;;;;;;23.88;9.48;;;;;;;-6.42;66.08;100321.50;4790455;29;20049;-86
2022/12/15 15:41:21;;;;;;;22.55;9.15;;;;;;;-5.96;66.16;100367.63;4776407;30;20494;-82
2022/12/15 15:43:48;;;;;;;24.95;9.43;;;;;;;-6.15;66.48;100329.19;4776012;29;20050;-85
2022/12/15 15:46:21;;;;;;;28.52;10.95;;;;;;;-5.81;66.11;100369.41;4775928;29;20047;-83
2022/12/15 15:52:12;;;;;;;15.98;7.65;;;;;;;-7.31;66.58;100115.63;4721389;29;20108;-83
2022/12/15 15:54:39;;;;;;;17.00;6.85;;;;;;;-6.31;66.48;100266.50;4790949;29;20144;-85
2022/12/15 15:57:05;;;;;;;15.45;6.68;;;;;;;-6.71;66.27;100207.34;4792855;29;20520;-83
2022/12/15 15:59:41;;;;;;;17.50;6.57;;;;;;;-6.99;66.87;100129.59;4761089;29;20062;-85
2022/12/15 16:02:10;;;;;;;16.77;6.80;;;;;;;-6.19;67.48;100239.41;4772044;30;20063;-84
2022/12/15 16:04:39;;;;;;;13.10;6.65;;;;;;;-6.42;66.04;100205.88;4756562;30;20047;-83
2022/12/15 16:07:12;;;;;;;16.00;6.90;;;;;;;-5.67;66.25;100339.91;4742030;30;20154;-84
2022/12/15 16:09:42;;;;;;;16.10;6.93;;;;;;;-6.17;65.48;100288.53;4742284;30;20050;-82
2022/12/15 16:12:24;;;;;;;17.48;7.32;;;;;;;-7.29;66.55;100083.75;4759928;30;20048;-81
2022/12/15 16:14:50;;;;;;;16.48;6.43;;;;;;;-6.00;66.74;100324.25;4756258;30;20051;-81
2022/12/15 16:17:17;;;;;;;15.48;6.38;;;;;;;-7.88;66.01;100005.63;4773498;30;20059;-80